Time;durP1;ratioP1;P1;durP2;ratioP2;P2;SDS_P1;SDS_P2;PMS_P1;PMS_P2;Temp;Humidity;BMP_temperature;BMP_pressure;BME280_temperature;BME280_humidity;BME280_pressure;Samples;Min_cycle;Max_cycle;Signal;HPM_P1;HPM_P2
2023/09/02 00:00:08;;;;;;;0.90;0.60;;;;;;;24.69;63.24;95653.22;5072720;28;20476;-62
2023/09/02 00:02:36;;;;;;;0.40;0.20;;;;;;;24.60;64.45;95653.38;5072170;28;20441;-62
2023/09/02 00:05:06;;;;;;;0.40;0.30;;;;;;;24.55;64.90;95640.09;5072958;28;20512;-63
2023/09/02 00:07:34;;;;;;;0.43;0.30;;;;;;;24.64;63.66;95656.19;5072354;28;20449;-63
2023/09/02 00:10:03;;;;;;;0.40;0.20;;;;;;;24.64;64.29;95654.25;5072469;28;20498;-63
2023/09/02 00:12:33;;;;;;;0.50;0.30;;;;;;;24.52;64.56;95650.84;5072019;28;20474;-63
2023/09/02 00:15:01;;;;;;;1.17;0.30;;;;;;;24.59;64.05;95664.59;5072422;28;20446;-63
2023/09/02 00:17:32;;;;;;;0.43;0.23;;;;;;;24.37;64.75;95641.56;5071715;28;20945;-63
2023/09/02 00:20:00;;;;;;;0.40;0.20;;;;;;;24.55;63.94;95658.28;5071918;28;20469;-63
2023/09/02 00:22:30;;;;;;;0.63;0.60;;;;;;;24.49;63.66;95656.94;5072074;28;20483;-63
2023/09/02 00:24:59;;;;;;;0.40;0.30;;;;;;;24.48;64.08;95655.41;5071661;28;20938;-63
2023/09/02 00:27:27;;;;;;;0.50;0.40;;;;;;;24.56;63.98;95657.16;5072326;28;20488;-63
2023/09/02 00:29:57;;;;;;;0.40;0.20;;;;;;;24.59;63.82;95659.16;5072609;28;20495;-63
2023/09/02 00:32:25;;;;;;;0.40;0.20;;;;;;;24.62;63.50;95655.72;5070910;28;20469;-63
2023/09/02 00:34:54;;;;;;;0.40;0.30;;;;;;;24.65;63.05;95657.75;5070074;28;20445;-63
2023/09/02 00:37:22;;;;;;;0.67;0.50;;;;;;;24.56;63.22;95657.16;5071515;28;20460;-62
2023/09/02 00:39:50;;;;;;;0.53;0.40;;;;;;;24.49;63.22;95655.03;5067146;28;20860;-62
2023/09/02 00:42:20;;;;;;;1.00;0.40;;;;;;;24.57;63.46;95658.72;5072295;28;20429;-62
2023/09/02 00:44:49;;;;;;;0.60;0.30;;;;;;;24.00;63.23;95570.56;5070449;28;20444;-63
2023/09/02 00:47:19;;;;;;;0.40;0.30;;;;;;;24.49;63.01;95651.53;5072134;28;20438;-62
2023/09/02 00:49:48;;;;;;;0.70;0.30;;;;;;;24.52;62.98;95654.34;5070111;28;20476;-63
2023/09/02 00:52:19;;;;;;;0.40;0.30;;;;;;;24.47;63.56;95654.59;5071718;28;20871;-63
2023/09/02 00:54:48;;;;;;;0.50;0.30;;;;;;;24.47;63.57;95659.22;5071792;28;20452;-63
2023/09/02 00:57:16;;;;;;;0.40;0.20;;;;;;;24.47;62.72;95656.53;5072035;28;20437;-63
2023/09/02 00:59:45;;;;;;;1.00;0.50;;;;;;;24.36;63.20;95650.81;5071511;28;20473;-64
2023/09/02 01:02:13;;;;;;;0.40;0.40;;;;;;;24.41;62.56;95655.22;5070715;28;21009;-65
2023/09/02 01:04:44;;;;;;;1.33;0.50;;;;;;;24.40;62.84;95659.84;5072151;28;20495;-65
2023/09/02 01:07:13;;;;;;;0.40;0.30;;;;;;;24.38;62.51;95658.63;5071380;28;20433;-65
2023/09/02 01:09:42;;;;;;;0.50;0.30;;;;;;;24.34;62.92;95655.00;5071045;28;20512;-65
2023/09/02 01:12:12;;;;;;;0.40;0.30;;;;;;;24.29;63.29;95647.16;5071504;28;20449;-65
2023/09/02 01:14:41;;;;;;;0.40;0.30;;;;;;;24.22;63.75;95653.19;5071295;28;20490;-65
2023/09/02 01:17:09;;;;;;;0.50;0.43;;;;;;;24.15;64.26;95655.72;5071664;28;20437;-66
2023/09/02 01:19:40;;;;;;;0.40;0.30;;;;;;;23.97;63.58;95620.00;5071845;28;20469;-65
2023/09/02 01:22:26;;;;;;;0.50;0.30;;;;;;;24.22;63.72;95661.31;5070732;28;20494;-65
2023/09/02 01:25:16;;;;;;;0.50;0.30;;;;;;;24.17;64.28;95658.06;5070664;28;20448;-65
2023/09/02 01:27:51;;;;;;;0.57;0.33;;;;;;;24.12;64.65;95661.03;5071208;28;20446;-66
2023/09/02 01:30:22;;;;;;;0.40;0.30;;;;;;;24.05;64.21;95664.31;5070949;28;20441;-65
2023/09/02 01:32:53;;;;;;;0.50;0.30;;;;;;;24.07;64.89;95661.25;5071140;28;20445;-66
2023/09/02 01:35:27;;;;;;;0.40;0.30;;;;;;;24.02;64.95;95660.38;5070673;28;20477;-66
2023/09/02 01:37:58;;;;;;;0.50;0.40;;;;;;;23.92;65.00;95655.47;5070905;28;20468;-66
2023/09/02 01:40:27;;;;;;;0.40;0.30;;;;;;;23.97;64.67;95652.50;5071102;28;20481;-66
2023/09/02 01:42:59;;;;;;;0.40;0.30;;;;;;;23.78;65.34;95655.06;5071067;28;20470;-66
2023/09/02 01:45:31;;;;;;;0.93;0.47;;;;;;;23.80;65.20;95636.56;5070624;28;20438;-65
2023/09/02 01:48:00;;;;;;;0.40;0.20;;;;;;;23.93;65.23;95650.84;5070759;28;20491;-65
2023/09/02 01:50:31;;;;;;;0.50;0.30;;;;;;;23.98;64.66;95654.06;5070679;28;20476;-66
2023/09/02 01:53:01;;;;;;;0.40;0.20;;;;;;;23.59;65.22;95606.19;5070841;28;20449;-66
2023/09/02 01:55:30;;;;;;;1.33;0.30;;;;;;;23.78;65.11;95646.94;5070774;28;20438;-66
2023/09/02 01:58:00;;;;;;;0.40;0.23;;;;;;;23.77;65.66;95650.78;5070356;28;22155;-66
2023/09/02 02:00:29;;;;;;;0.50;0.30;;;;;;;23.91;64.96;95647.66;5071079;28;20848;-66
2023/09/02 02:02:59;;;;;;;0.50;0.40;;;;;;;23.37;65.08;95590.50;5070892;28;20986;-66
2023/09/02 02:05:35;;;;;;;0.50;0.40;;;;;;;23.72;65.75;95645.63;5070683;28;20545;-66
2023/09/02 02:08:10;;;;;;;0.50;0.30;;;;;;;23.24;66.14;95653.84;5070536;28;20917;-66
2023/09/02 02:10:41;;;;;;;0.60;0.50;;;;;;;23.18;67.51;95653.28;5070285;28;20453;-66
2023/09/02 02:13:10;;;;;;;0.97;0.70;;;;;;;23.43;67.06;95639.75;5073808;28;21002;-66
2023/09/02 02:15:39;;;;;;;0.60;0.60;;;;;;;23.56;66.43;95644.75;5074328;28;20484;-66
2023/09/02 02:18:07;;;;;;;0.83;0.37;;;;;;;23.61;65.72;95625.56;5074799;28;20444;-67
2023/09/02 02:20:45;;;;;;;0.60;0.40;;;;;;;23.41;66.93;95631.97;5071730;28;20481;-66
2023/09/02 02:23:13;;;;;;;0.60;0.40;;;;;;;23.44;66.98;95644.81;5065353;28;20437;-66
2023/09/02 02:25:42;;;;;;;0.50;0.30;;;;;;;23.50;66.54;95615.59;5074077;28;20523;-67
2023/09/02 02:28:11;;;;;;;0.50;0.33;;;;;;;23.45;66.36;95588.78;5074603;28;20814;-58
2023/09/02 02:30:40;;;;;;;0.50;0.33;;;;;;;23.76;66.48;95634.88;5073634;28;20444;-56
2023/09/02 02:33:08;;;;;;;0.50;0.30;;;;;;;23.69;66.31;95618.44;5074304;28;20440;-56
2023/09/02 02:35:36;;;;;;;0.40;0.30;;;;;;;23.71;66.74;95635.13;5073485;28;20433;-56
2023/09/02 02:38:05;;;;;;;0.50;0.30;;;;;;;23.57;66.13;95626.63;5074275;28;20507;-56
2023/09/02 02:40:33;;;;;;;0.60;0.50;;;;;;;23.28;66.12;95642.00;5074323;28;20526;-56
2023/09/02 02:43:02;;;;;;;0.50;0.40;;;;;;;23.15;68.20;95636.94;5074358;28;20846;-56
2023/09/02 02:45:31;;;;;;;1.40;0.77;;;;;;;23.42;68.57;95636.25;5074123;28;20527;-56
2023/09/02 02:48:00;;;;;;;0.50;0.40;;;;;;;23.33;67.43;95633.63;5074139;28;20440;-56
2023/09/02 02:50:28;;;;;;;1.63;1.43;;;;;;;23.26;67.86;95638.06;5073787;28;20524;-56
2023/09/02 02:52:58;;;;;;;0.67;0.67;;;;;;;23.14;67.03;95619.94;5073515;28;20445;-56
2023/09/02 02:55:26;;;;;;;0.53;0.37;;;;;;;23.44;70.36;95636.69;5074090;28;20499;-56
2023/09/02 02:57:56;;;;;;;0.50;0.50;;;;;;;23.52;69.39;95638.47;5073505;28;21019;-56
2023/09/02 03:00:25;;;;;;;0.70;0.50;;;;;;;23.43;69.48;95628.94;5073225;28;20887;-56
2023/09/02 03:02:55;;;;;;;0.50;0.37;;;;;;;23.51;68.47;95633.38;5073655;28;20840;-57
2023/09/02 03:05:23;;;;;;;0.50;0.40;;;;;;;23.55;68.74;95637.78;5073225;28;20464;-56
2023/09/02 03:07:51;;;;;;;0.40;0.30;;;;;;;23.50;68.56;95634.53;5073402;28;20445;-56
2023/09/02 03:10:20;;;;;;;0.67;0.67;;;;;;;23.47;67.34;95630.59;5073407;28;20480;-56
2023/09/02 03:12:48;;;;;;;0.40;0.30;;;;;;;23.17;67.99;95597.59;5072892;28;20506;-56
2023/09/02 03:15:17;;;;;;;0.40;0.20;;;;;;;23.46;69.16;95639.03;5073220;28;20518;-56
2023/09/02 03:17:45;;;;;;;0.40;0.30;;;;;;;23.45;68.21;95643.69;5073108;28;20992;-56
2023/09/02 03:20:15;;;;;;;0.40;0.30;;;;;;;23.45;68.95;95653.72;5073422;28;20467;-53
2023/09/02 03:22:43;;;;;;;0.40;0.30;;;;;;;23.33;69.74;95643.66;5072680;28;20471;-53
2023/09/02 03:25:11;;;;;;;0.70;0.53;;;;;;;23.40;70.13;95652.03;5072520;28;20532;-53
2023/09/02 03:27:40;;;;;;;0.80;0.57;;;;;;;23.33;69.47;95640.97;5072833;28;20429;-53
2023/09/02 03:30:09;;;;;;;1.07;0.47;;;;;;;23.36;70.33;95653.84;5073347;28;20460;-53
2023/09/02 03:32:38;;;;;;;2.30;0.30;;;;;;;23.28;69.94;95649.31;5073424;28;20544;-53
2023/09/02 03:35:07;;;;;;;0.50;0.40;;;;;;;23.32;71.45;95639.41;5072845;28;20445;-53
2023/09/02 03:37:37;;;;;;;0.40;0.30;;;;;;;23.56;69.92;95652.88;5073018;28;20453;-53
2023/09/02 03:40:07;;;;;;;0.40;0.30;;;;;;;23.33;67.42;95659.91;5071911;28;20475;-53
2023/09/02 03:42:35;;;;;;;0.50;0.30;;;;;;;23.20;67.88;95651.00;5072569;28;20502;-53
2023/09/02 03:45:04;;;;;;;0.50;0.30;;;;;;;22.95;69.57;95681.91;5071865;28;20433;-53
2023/09/02 03:47:33;;;;;;;0.50;0.30;;;;;;;23.00;70.56;95665.47;5071767;28;20452;-54
2023/09/02 03:50:02;;;;;;;0.57;0.33;;;;;;;23.20;70.13;95667.25;5072454;28;20464;-53
2023/09/02 03:52:30;;;;;;;0.40;0.30;;;;;;;23.23;69.99;95665.78;5072680;28;20500;-53
2023/09/02 03:55:00;;;;;;;1.93;0.43;;;;;;;23.19;70.86;95667.59;5072858;28;20553;-53
2023/09/02 03:57:30;;;;;;;0.43;0.33;;;;;;;23.04;71.50;95663.69;5072541;28;20872;-54
2023/09/02 03:59:59;;;;;;;0.50;0.40;;;;;;;22.93;72.52;95661.75;5071062;28;20433;-53
2023/09/02 04:02:27;;;;;;;0.50;0.40;;;;;;;22.92;72.67;95671.00;5071731;28;20484;-53
2023/09/02 04:04:56;;;;;;;0.40;0.30;;;;;;;23.12;71.67;95664.69;5071225;28;20451;-53
2023/09/02 04:07:24;;;;;;;0.40;0.30;;;;;;;23.26;71.04;95668.59;5072132;28;20437;-53
2023/09/02 04:09:54;;;;;;;0.40;0.30;;;;;;;23.38;70.35;95665.09;5046380;28;20483;-53
2023/09/02 04:12:24;;;;;;;0.40;0.30;;;;;;;23.35;71.69;95660.38;5071470;28;20445;-53
2023/09/02 04:14:53;;;;;;;0.50;0.40;;;;;;;23.35;71.80;95669.25;5071957;28;20866;-53
2023/09/02 04:17:21;;;;;;;0.50;0.50;;;;;;;23.49;69.00;95666.22;5072273;28;20441;-53
2023/09/02 04:19:50;;;;;;;0.50;0.43;;;;;;;23.49;69.89;95668.91;5072282;28;20444;-53
2023/09/02 04:22:18;;;;;;;0.50;0.40;;;;;;;23.21;70.09;95622.84;5070560;28;20490;-53
2023/09/02 04:24:47;;;;;;;0.40;0.30;;;;;;;23.62;69.87;95672.38;5070998;28;20501;-59
2023/09/02 04:27:15;;;;;;;0.40;0.33;;;;;;;23.40;70.12;95662.06;5071668;28;20441;-53
2023/09/02 04:29:45;;;;;;;0.50;0.30;;;;;;;23.52;70.26;95657.41;5071567;28;20499;-53
2023/09/02 04:32:13;;;;;;;0.40;0.30;;;;;;;23.23;70.24;95633.31;5071649;28;20448;-54
2023/09/02 04:34:42;;;;;;;0.50;0.40;;;;;;;23.42;69.83;95673.34;5071691;28;20481;-53
2023/09/02 04:37:10;;;;;;;0.60;0.37;;;;;;;23.19;71.23;95670.31;5070757;28;20438;-54
2023/09/02 04:39:40;;;;;;;0.50;0.40;;;;;;;22.98;73.90;95678.53;5071199;28;20506;-54
2023/09/02 04:42:09;;;;;;;0.60;0.37;;;;;;;22.83;76.41;95679.22;5071151;28;20491;-54
2023/09/02 04:44:37;;;;;;;1.43;0.50;;;;;;;22.83;77.26;95678.44;5070884;28;20461;-54
2023/09/02 04:47:10;;;;;;;0.40;0.30;;;;;;;22.84;77.82;95680.81;5071242;28;20440;-55
2023/09/02 04:49:38;;;;;;;0.60;0.30;;;;;;;22.86;78.24;95675.06;5069752;28;20472;-55
2023/09/02 04:52:07;;;;;;;0.40;0.30;;;;;;;23.08;76.16;95688.09;5070691;28;20965;-54
2023/09/02 04:54:35;;;;;;;0.50;0.30;;;;;;;23.05;76.88;95683.38;5070795;28;20436;-54
2023/09/02 04:57:03;;;;;;;0.60;0.43;;;;;;;23.15;77.24;95680.19;5071568;28;20449;-55
2023/09/02 04:59:32;;;;;;;0.40;0.30;;;;;;;23.24;76.32;95689.00;5071410;28;20571;-55
2023/09/02 05:02:00;;;;;;;0.40;0.30;;;;;;;23.06;77.60;95695.78;5070959;28;20473;-55
2023/09/02 05:04:30;;;;;;;0.77;0.63;;;;;;;22.17;80.79;95586.72;5070734;28;20525;-55
2023/09/02 05:06:58;;;;;;;0.50;0.40;;;;;;;22.76;81.32;95695.22;5071609;28;20476;-55
2023/09/02 05:09:27;;;;;;;0.60;0.40;;;;;;;22.74;82.14;95697.47;5071705;28;20465;-55
2023/09/02 05:11:55;;;;;;;0.43;0.30;;;;;;;22.69;83.69;95698.47;5071645;28;20868;-55
2023/09/02 05:14:23;;;;;;;0.50;0.40;;;;;;;22.47;85.86;95688.03;5071272;28;20437;-56
2023/09/02 05:16:52;;;;;;;0.60;0.60;;;;;;;22.28;88.62;95690.50;5071127;28;20961;-55
2023/09/02 05:19:20;;;;;;;0.67;0.40;;;;;;;22.32;89.36;95701.41;5070801;28;20950;-55
2023/09/02 05:21:50;;;;;;;0.40;0.30;;;;;;;22.61;85.50;95699.34;5070729;28;20472;-55
2023/09/02 05:24:18;;;;;;;0.50;0.30;;;;;;;22.79;82.99;95701.84;5070564;28;20437;-55
2023/09/02 05:26:47;;;;;;;0.40;0.20;;;;;;;22.78;82.92;95701.06;5070721;28;20446;-55
2023/09/02 05:29:17;;;;;;;0.50;0.33;;;;;;;22.69;83.79;95692.28;5071070;28;20429;-55
2023/09/02 05:31:45;;;;;;;0.60;0.40;;;;;;;22.66;84.05;95696.44;5071454;28;20831;-58
2023/09/02 05:34:13;;;;;;;0.50;0.30;;;;;;;22.62;83.67;95692.81;5045465;28;20437;-57
2023/09/02 05:36:42;;;;;;;0.50;0.30;;;;;;;22.55;84.79;95691.78;5071109;28;20442;-57
2023/09/02 05:39:12;;;;;;;0.50;0.30;;;;;;;22.74;84.40;95698.22;5071212;28;20495;-57
2023/09/02 05:41:40;;;;;;;0.90;0.90;;;;;;;22.85;82.76;95693.19;5070332;28;21000;-57
2023/09/02 05:44:08;;;;;;;0.50;0.40;;;;;;;23.06;81.70;95710.09;5071315;28;20497;-57
2023/09/02 05:46:37;;;;;;;0.40;0.20;;;;;;;22.72;83.79;95691.59;5070963;28;20460;-57
2023/09/02 05:49:05;;;;;;;0.50;0.40;;;;;;;22.70;84.63;95708.16;5074487;28;20480;-56
2023/09/02 05:51:33;;;;;;;0.50;0.40;;;;;;;22.68;86.52;95712.31;5074752;28;20440;-56
2023/09/02 05:54:02;;;;;;;0.50;0.40;;;;;;;22.70;85.84;95710.06;5074988;28;20809;-56
2023/09/02 05:56:33;;;;;;;0.50;0.40;;;;;;;22.97;83.85;95706.69;5074398;28;20960;-56
2023/09/02 05:59:02;;;;;;;0.50;0.30;;;;;;;22.84;83.12;95698.94;5074517;28;20444;-56
2023/09/02 06:01:30;;;;;;;0.40;0.30;;;;;;;22.88;83.46;95711.44;5074464;28;20479;-57
2023/09/02 06:03:59;;;;;;;0.50;0.30;;;;;;;22.89;83.72;95723.03;5073788;28;20437;-56
2023/09/02 06:06:27;;;;;;;0.70;0.70;;;;;;;22.92;84.24;95715.03;5074394;28;21020;-56
2023/09/02 06:08:55;;;;;;;0.57;0.47;;;;;;;23.13;82.38;95723.03;5061850;28;20882;-56
2023/09/02 06:11:24;;;;;;;0.50;0.30;;;;;;;23.38;80.58;95719.19;5074187;28;20737;-56
2023/09/02 06:13:53;;;;;;;0.47;0.37;;;;;;;23.39;81.30;95720.78;5074076;28;20980;-56
2023/09/02 06:16:22;;;;;;;0.50;0.30;;;;;;;23.49;80.79;95725.72;5074326;28;20521;-56
2023/09/02 06:18:50;;;;;;;0.40;0.23;;;;;;;23.61;79.59;95727.63;5073821;28;20536;-56
2023/09/02 06:21:19;;;;;;;0.50;0.40;;;;;;;23.32;81.35;95734.88;5073347;28;20437;-56
2023/09/02 06:23:47;;;;;;;0.50;0.40;;;;;;;23.62;78.85;95734.63;5073645;28;20477;-55
2023/09/02 06:26:15;;;;;;;0.60;0.30;;;;;;;23.76;78.65;95732.31;5073943;28;20433;-55
2023/09/02 06:28:45;;;;;;;0.50;0.40;;;;;;;23.85;77.56;95736.47;5074492;28;20499;-55
2023/09/02 06:31:15;;;;;;;0.50;0.50;;;;;;;23.61;78.14;95730.31;5074138;28;20445;-57
2023/09/02 06:33:44;;;;;;;0.40;0.30;;;;;;;23.76;78.07;95738.53;5070673;28;20430;-55
2023/09/02 06:36:14;;;;;;;2.13;0.37;;;;;;;23.71;79.33;95744.19;5064282;28;20444;-56
2023/09/02 06:38:43;;;;;;;0.83;0.83;;;;;;;23.49;80.78;95739.25;5073585;28;20468;-56
2023/09/02 06:41:12;;;;;;;1.17;1.07;;;;;;;23.13;88.65;95742.75;5074306;28;20821;-55
2023/09/02 06:43:42;;;;;;;5.60;1.40;;;;;;;22.99;91.55;95746.91;5073820;28;20556;-55
2023/09/02 06:46:13;;;;;;;1.97;1.87;;;;;;;23.03;93.55;95747.81;5073938;28;20459;-55
2023/09/02 06:48:44;;;;;;;1.53;1.43;;;;;;;23.09;95.28;95749.97;5073885;28;20433;-56
2023/09/02 06:51:12;;;;;;;2.00;1.77;;;;;;;23.14;93.67;95748.94;5073928;28;20441;-55
2023/09/02 06:53:41;;;;;;;2.13;0.67;;;;;;;23.23;92.84;95752.31;5073731;28;20486;-55
2023/09/02 06:56:11;;;;;;;2.20;0.87;;;;;;;23.19;91.52;95749.53;5073329;28;20442;-55
2023/09/02 06:58:41;;;;;;;0.57;0.57;;;;;;;23.51;88.41;95755.94;5072760;28;20441;-55
2023/09/02 07:01:16;;;;;;;0.97;0.87;;;;;;;23.31;87.67;95708.13;5073904;28;20540;-54
2023/09/02 07:03:46;;;;;;;3.90;1.17;;;;;;;23.39;86.13;95750.56;5073355;28;20569;-54
2023/09/02 07:06:15;;;;;;;12.43;1.27;;;;;;;23.10;84.71;95742.63;5073798;28;20442;-55
2023/09/02 07:08:44;;;;;;;1.33;1.17;;;;;;;23.36;86.52;95762.03;5073148;28;20442;-54
2023/09/02 07:11:13;;;;;;;5.13;1.97;;;;;;;23.23;81.47;95758.53;5072983;28;20437;-54
2023/09/02 07:13:45;;;;;;;1.63;1.27;;;;;;;23.19;81.81;95762.25;5073481;28;20521;-54
2023/09/02 07:16:15;;;;;;;1.37;1.27;;;;;;;23.16;80.76;95760.22;5073136;28;20468;-55
2023/09/02 07:18:46;;;;;;;0.70;0.67;;;;;;;23.09;79.84;95746.47;5073700;28;20517;-55
2023/09/02 07:21:14;;;;;;;0.97;0.73;;;;;;;23.30;79.97;95768.78;5060728;28;20965;-55
2023/09/02 07:23:42;;;;;;;0.90;0.90;;;;;;;23.36;78.70;95773.66;5073298;28;20490;-54
2023/09/02 07:26:11;;;;;;;0.70;0.70;;;;;;;23.54;77.69;95776.91;5073449;28;20806;-53
2023/09/02 07:28:42;;;;;;;1.07;0.50;;;;;;;23.65;77.08;95769.91;5073283;28;20446;-53
2023/09/02 07:31:11;;;;;;;0.70;0.50;;;;;;;24.11;75.58;95776.69;5073280;28;20853;-53
2023/09/02 07:33:39;;;;;;;0.70;0.40;;;;;;;24.51;73.57;95760.41;5073215;28;20516;-54
2023/09/02 07:36:10;;;;;;;1.83;0.60;;;;;;;24.47;72.41;95748.66;5073144;28;20913;-54
2023/09/02 07:38:39;;;;;;;0.60;0.50;;;;;;;24.72;72.44;95777.19;5073262;28;20452;-54
2023/09/02 07:41:08;;;;;;;0.70;0.70;;;;;;;25.21;67.31;95762.22;5072846;28;20437;-54
2023/09/02 07:43:37;;;;;;;1.00;0.40;;;;;;;25.41;67.04;95775.84;5072733;28;20526;-55
2023/09/02 07:46:05;;;;;;;0.40;0.30;;;;;;;25.39;66.03;95719.22;5073248;28;20441;-55
2023/09/02 07:48:34;;;;;;;0.50;0.40;;;;;;;25.82;65.37;95767.13;5072806;28;20429;-55
2023/09/02 07:51:02;;;;;;;0.60;0.30;;;;;;;25.67;64.92;95765.22;5072917;28;20449;-55
2023/09/02 07:53:32;;;;;;;0.50;0.30;;;;;;;25.89;64.64;95759.13;5072750;28;20433;-55
2023/09/02 07:56:01;;;;;;;0.80;0.60;;;;;;;25.98;64.11;95770.59;5073123;28;20476;-55
2023/09/02 07:58:29;;;;;;;0.40;0.30;;;;;;;26.12;62.89;95757.31;5047240;28;20438;-52
2023/09/02 08:00:58;;;;;;;0.50;0.40;;;;;;;26.38;62.43;95771.03;5072455;28;20476;-52
2023/09/02 08:03:26;;;;;;;0.67;0.50;;;;;;;26.28;62.27;95777.06;5072678;28;20483;-52
2023/09/02 08:05:54;;;;;;;0.70;0.30;;;;;;;26.13;62.80;95777.91;5072539;28;20498;-52
2023/09/02 08:08:23;;;;;;;0.53;0.50;;;;;;;26.37;61.44;95758.59;5072494;28;20520;-53
2023/09/02 08:11:03;;;;;;;0.50;0.37;;;;;;;26.83;60.63;95775.78;5072455;28;20434;-52
2023/09/02 08:13:32;;;;;;;0.70;0.70;;;;;;;27.01;59.20;95770.66;5072586;28;20441;-52
2023/09/02 08:16:03;;;;;;;0.50;0.43;;;;;;;26.92;59.22;95775.53;5072507;28;20506;-52
2023/09/02 08:18:33;;;;;;;0.70;0.60;;;;;;;26.99;58.18;95770.25;5072432;28;20830;-52
2023/09/02 08:21:01;;;;;;;0.40;0.30;;;;;;;27.34;56.82;95759.94;5072464;28;20445;-51
2023/09/02 08:23:30;;;;;;;0.70;0.70;;;;;;;27.46;55.56;95767.94;5072068;28;20464;-52
2023/09/02 08:25:58;;;;;;;0.40;0.30;;;;;;;27.86;56.24;95763.81;5071797;28;20449;-52
2023/09/02 08:28:28;;;;;;;0.50;0.37;;;;;;;27.95;54.13;95756.97;5071337;28;20822;-52
2023/09/02 08:30:56;;;;;;;0.40;0.40;;;;;;;28.31;53.92;95766.38;5071844;28;20441;-52
2023/09/02 08:33:25;;;;;;;0.40;0.40;;;;;;;28.75;53.79;95761.84;5072139;28;20524;-52
2023/09/02 08:35:53;;;;;;;1.37;1.23;;;;;;;28.13;54.95;95766.16;5071890;28;20433;-52
2023/09/02 08:38:21;;;;;;;0.67;0.50;;;;;;;28.79;53.60;95751.72;5071920;28;20445;-52
2023/09/02 08:40:53;;;;;;;0.60;0.50;;;;;;;28.89;53.27;95740.13;5072208;28;20433;-52
2023/09/02 08:43:22;;;;;;;1.17;1.07;;;;;;;28.75;53.00;95739.22;5071494;28;20475;-52
2023/09/02 08:45:53;;;;;;;0.80;0.80;;;;;;;29.32;51.46;95762.38;5071502;28;20532;-53
2023/09/02 08:48:24;;;;;;;1.73;0.70;;;;;;;29.31;50.45;95763.53;5071758;28;20437;-53
2023/09/02 08:50:56;;;;;;;0.60;0.50;;;;;;;29.60;49.83;95734.50;5071206;28;20476;-53
2023/09/02 08:53:26;;;;;;;1.13;1.03;;;;;;;31.09;48.27;95748.41;5070977;28;20437;-53
2023/09/02 08:55:55;;;;;;;1.13;1.07;;;;;;;31.60;45.94;95752.72;5071053;28;20437;-52
2023/09/02 08:58:26;;;;;;;1.13;1.13;;;;;;;31.24;45.94;95747.22;5071605;28;20429;-53
2023/09/02 09:00:56;;;;;;;3.47;0.50;;;;;;;31.23;45.70;95726.47;5071507;28;20449;-52
2023/09/02 09:03:29;;;;;;;0.40;0.40;;;;;;;32.17;44.75;95739.66;5071034;28;20528;-52
2023/09/02 09:06:02;;;;;;;0.73;0.57;;;;;;;32.10;43.97;95704.81;5071521;28;20830;-51
2023/09/02 09:08:32;;;;;;;0.40;0.40;;;;;;;32.48;43.46;95723.06;5071225;28;20447;-51
2023/09/02 09:11:00;;;;;;;0.60;0.60;;;;;;;32.36;45.03;95726.25;5070334;28;20498;-51
2023/09/02 09:13:30;;;;;;;2.87;0.67;;;;;;;31.36;43.50;95677.56;5070988;28;20448;-51
2023/09/02 09:16:00;;;;;;;0.47;0.40;;;;;;;32.12;42.96;95720.88;5070492;28;20528;-52
2023/09/02 09:18:29;;;;;;;0.40;0.30;;;;;;;31.06;42.70;95590.34;5071530;28;20444;-50
2023/09/02 09:20:57;;;;;;;0.50;0.37;;;;;;;31.34;42.90;95688.13;5071012;28;20498;-49
2023/09/02 09:23:26;;;;;;;0.93;0.80;;;;;;;32.08;43.24;95709.91;5070324;28;20433;-49
2023/09/02 09:25:54;;;;;;;0.60;0.53;;;;;;;32.03;41.62;95647.25;5071322;28;20502;-49
2023/09/02 09:28:23;;;;;;;0.57;0.50;;;;;;;32.37;40.57;95702.34;5071072;28;20810;-49
2023/09/02 09:30:52;;;;;;;0.40;0.30;;;;;;;32.27;39.82;95705.91;5070780;28;20505;-49
2023/09/02 09:33:22;;;;;;;1.60;0.80;;;;;;;31.83;39.18;95709.16;5071222;28;20527;-49
2023/09/02 09:35:51;;;;;;;0.40;0.40;;;;;;;32.41;39.48;95703.88;5046077;28;20818;-49
2023/09/02 09:38:21;;;;;;;0.57;0.50;;;;;;;32.96;37.61;95705.94;5070599;28;20475;-49
2023/09/02 09:40:50;;;;;;;0.50;0.47;;;;;;;33.85;36.72;95666.25;5070388;28;20937;-49
2023/09/02 09:43:23;;;;;;;3.70;0.70;;;;;;;33.79;35.47;95698.16;5071125;28;20441;-49
2023/09/02 09:45:52;;;;;;;0.47;0.40;;;;;;;34.73;35.43;95702.13;5071407;28;20491;-49
2023/09/02 09:48:23;;;;;;;0.40;0.40;;;;;;;35.10;35.13;95699.19;5071259;28;20557;-49
2023/09/02 09:50:51;;;;;;;0.40;0.40;;;;;;;36.03;34.73;95688.91;5070112;28;20480;-49
2023/09/02 09:53:20;;;;;;;0.80;0.40;;;;;;;35.32;35.05;95686.63;5067512;28;20437;-49
2023/09/02 09:55:48;;;;;;;0.57;0.40;;;;;;;35.27;33.42;95684.34;5070806;28;20478;-49
2023/09/02 09:58:23;;;;;;;0.97;0.97;;;;;;;35.21;32.60;95682.50;5071113;28;20443;-49
2023/09/02 10:00:52;;;;;;;0.70;0.63;;;;;;;35.32;34.70;95678.34;5071179;28;20490;-49
2023/09/02 10:03:31;;;;;;;0.43;0.40;;;;;;;34.47;32.51;95681.59;5044904;28;20240;-49
2023/09/02 10:06:00;;;;;;;0.77;0.57;;;;;;;34.41;34.09;95670.28;5070753;28;20995;-49
2023/09/02 10:08:29;;;;;;;0.40;0.40;;;;;;;34.01;34.89;95667.63;5071599;28;20194;-50
2023/09/02 10:10:57;;;;;;;0.40;0.40;;;;;;;33.65;34.08;95632.28;5070951;28;20548;-50
2023/09/02 10:13:26;;;;;;;0.63;0.60;;;;;;;32.61;35.45;95624.59;5071143;28;20195;-50
2023/09/02 10:15:54;;;;;;;0.50;0.50;;;;;;;32.85;34.67;95639.31;5070857;28;20281;-49
2023/09/02 10:18:24;;;;;;;0.63;0.63;;;;;;;33.36;35.04;95671.47;5071114;28;20515;-49
2023/09/02 10:20:55;;;;;;;0.53;0.53;;;;;;;33.34;35.26;95660.09;5070342;28;20936;-49
2023/09/02 10:23:24;;;;;;;0.80;0.60;;;;;;;33.46;35.29;95618.34;5070536;28;20861;-49
2023/09/02 10:25:58;;;;;;;0.50;0.50;;;;;;;32.35;35.14;95663.53;5070923;28;20214;-50
2023/09/02 10:28:36;;;;;;;0.60;0.50;;;;;;;32.21;35.48;95658.13;5071085;28;20872;-50
2023/09/02 10:31:12;;;;;;;0.50;0.40;;;;;;;32.03;36.47;95619.81;5071186;28;20448;-50
2023/09/02 10:33:50;;;;;;;0.70;0.33;;;;;;;32.21;35.93;95663.59;5072721;28;20440;-57
2023/09/02 10:36:23;;;;;;;1.00;0.97;;;;;;;31.85;36.66;95661.00;5074618;28;20505;-57
2023/09/02 10:38:53;;;;;;;0.40;0.30;;;;;;;32.13;37.30;95662.09;5074179;28;20441;-57
2023/09/02 10:41:25;;;;;;;0.50;0.50;;;;;;;31.78;38.02;95665.72;5074038;28;20437;-55
2023/09/02 10:43:56;;;;;;;0.40;0.40;;;;;;;31.62;37.77;95599.63;5048249;28;20940;-54
2023/09/02 10:46:26;;;;;;;0.63;0.43;;;;;;;31.90;36.81;95660.59;5073951;28;20945;-55
2023/09/02 10:48:55;;;;;;;0.40;0.30;;;;;;;31.58;38.32;95670.09;5073870;28;20572;-56
2023/09/02 10:51:25;;;;;;;0.50;0.50;;;;;;;31.36;39.25;95667.38;5074261;28;20448;-56
2023/09/02 10:53:56;;;;;;;0.77;0.57;;;;;;;31.41;38.73;95666.19;5074416;28;20498;-56
2023/09/02 10:56:26;;;;;;;0.50;0.40;;;;;;;31.64;38.95;95663.03;5074262;28;20452;-57
2023/09/02 10:58:54;;;;;;;0.50;0.30;;;;;;;31.79;39.39;95634.41;5073950;28;20464;-57
2023/09/02 11:01:23;;;;;;;0.50;0.50;;;;;;;31.47;39.93;95631.00;5073747;28;20433;-57
2023/09/02 11:03:54;;;;;;;0.40;0.30;;;;;;;31.35;38.53;95663.06;5074204;28;20429;-57
2023/09/02 11:06:22;;;;;;;3.90;0.40;;;;;;;31.35;39.23;95671.28;5073057;28;20479;-57
2023/09/02 11:08:53;;;;;;;0.50;0.33;;;;;;;31.26;38.71;95665.44;5073669;28;20514;-57
2023/09/02 11:11:22;;;;;;;1.70;0.77;;;;;;;31.35;40.28;95662.28;5073587;28;20430;-56
2023/09/02 11:14:21;;;;;;;0.50;0.30;;;;;;;31.29;39.35;95670.13;5073752;28;20456;-56
2023/09/02 11:17:27;;;;;;;0.70;0.60;;;;;;;31.13;39.18;95675.22;5072849;28;20466;-56
2023/09/02 11:19:59;;;;;;;0.70;0.53;;;;;;;31.02;40.56;95674.44;5072463;28;20448;-56
2023/09/02 11:22:59;;;;;;;0.70;0.40;;;;;;;30.96;39.98;95667.81;5071583;28;20468;-57
2023/09/02 11:25:37;;;;;;;0.47;0.43;;;;;;;30.63;39.46;95659.94;5072771;28;20465;-55
2023/09/02 11:28:07;;;;;;;0.67;0.30;;;;;;;30.57;39.97;95666.97;5073402;28;20437;-60
2023/09/02 11:30:38;;;;;;;0.93;0.50;;;;;;;30.24;40.35;95659.81;5073395;28;20798;-60
2023/09/02 11:33:07;;;;;;;0.50;0.50;;;;;;;30.44;41.34;95676.69;5072323;28;20836;-58
2023/09/02 11:35:38;;;;;;;0.40;0.30;;;;;;;30.06;40.48;95670.72;5072037;28;20469;-58
2023/09/02 11:38:19;;;;;;;0.70;0.50;;;;;;;30.22;40.20;95680.53;5073092;28;20441;-59
2023/09/02 11:40:48;;;;;;;0.40;0.30;;;;;;;30.12;40.50;95680.13;5072271;28;20437;-58
2023/09/02 11:43:19;;;;;;;0.40;0.30;;;;;;;29.97;39.75;95686.69;5072272;28;20441;-57
2023/09/02 11:45:49;;;;;;;0.40;0.30;;;;;;;29.89;41.37;95678.84;5071832;28;20488;-58